Time;durP1;ratioP1;P1;durP2;ratioP2;P2;SDS_P1;SDS_P2;PMS_P1;PMS_P2;Temp;Humidity;BMP_temperature;BMP_pressure;BME280_temperature;BME280_humidity;BME280_pressure;Samples;Min_cycle;Max_cycle;Signal;HPM_P1;HPM_P2
2022/06/18 00:00:35;;;;;;;;;;;20.90;49.20;;;;;;5149143;27;19926;-57
2022/06/18 00:03:01;;;;;;;;;;;20.20;49.80;;;;;;5164732;27;19932;-46
2022/06/18 00:05:27;;;;;;;;;;;19.90;49.40;;;;;;5163061;27;19975;-47
2022/06/18 00:07:53;;;;;;;;;;;20.10;51.00;;;;;;5166449;27;19975;-47
2022/06/18 00:10:23;;;;;;;;;;;21.10;50.50;;;;;;5162046;27;20019;-45
2022/06/18 00:15:37;;;;;;;;;;;20.80;49.70;;;;;;5168453;27;19934;-45
2022/06/18 00:18:05;;;;;;;;;;;20.20;49.90;;;;;;5162735;27;19931;-45
2022/06/18 00:20:32;;;;;;;;;;;19.80;49.80;;;;;;5143409;27;19928;-47
2022/06/18 00:22:58;;;;;;;;;;;20.10;51.00;;;;;;5149745;27;19958;-48
2022/06/18 00:25:44;;;;;;;;;;;21.20;50.40;;;;;;5142968;27;19926;-47
2022/06/18 00:28:15;;;;;;;;;;;21.80;48.50;;;;;;5161108;27;20296;-47
2022/06/18 00:30:41;;;;;;;;;;;20.70;49.70;;;;;;5167659;27;20414;-46
2022/06/18 00:33:07;;;;;;;;;;;20.30;49.70;;;;;;5162500;27;19923;-48
2022/06/18 00:35:33;;;;;;;;;;;19.90;49.60;;;;;;5163876;27;19981;-54
2022/06/18 00:37:59;;;;;;;;;;;19.80;50.80;;;;;;5167522;27;20377;-47
2022/06/18 00:40:26;;;;;;;;;;;20.90;50.80;;;;;;5144047;27;20022;-45
2022/06/18 00:42:52;;;;;;;;;;;21.80;49.10;;;;;;5149067;27;19922;-52
2022/06/18 00:45:24;;;;;;;;;;;21.00;49.50;;;;;;5160448;27;19936;-44
2022/06/18 00:47:55;;;;;;;;;;;20.20;50.10;;;;;;5142360;27;19923;-46
2022/06/18 00:50:27;;;;;;;;;;;20.00;49.60;;;;;;5149251;27;19923;-46
2022/06/18 00:53:11;;;;;;;;;;;20.00;51.30;;;;;;5144118;27;19962;-45
2022/06/18 00:55:39;;;;;;;;;;;21.00;51.00;;;;;;5162824;27;19937;-45
2022/06/18 00:58:07;;;;;;;;;;;21.80;48.40;;;;;;5168109;27;19988;-45
2022/06/18 01:00:34;;;;;;;;;;;20.80;49.90;;;;;;5143777;27;20014;-46
2022/06/18 01:03:00;;;;;;;;;;;20.10;50.10;;;;;;5160197;27;20054;-45
2022/06/18 01:05:26;;;;;;;;;;;20.10;49.60;;;;;;5167024;27;20358;-49
2022/06/18 01:07:54;;;;;;;;;;;19.90;50.70;;;;;;5162002;27;19927;-46
2022/06/18 01:10:21;;;;;;;;;;;20.80;51.20;;;;;;5145559;27;20010;-55
2022/06/18 01:12:47;;;;;;;;;;;21.80;49.00;;;;;;5147211;27;19929;-45
2022/06/18 01:15:13;;;;;;;;;;;21.00;49.50;;;;;;5162460;27;19923;-47
2022/06/18 01:17:39;;;;;;;;;;;20.30;49.90;;;;;;5149265;27;19931;-45
2022/06/18 01:20:06;;;;;;;;;;;20.10;49.50;;;;;;5161419;27;19926;-46
2022/06/18 01:22:35;;;;;;;;;;;19.80;49.80;;;;;;5160597;27;20382;-46
2022/06/18 01:25:00;;;;;;;;;;;20.30;51.10;;;;;;5148678;27;19922;-48
2022/06/18 01:27:26;;;;;;;;;;;21.30;50.40;;;;;;5162224;27;20293;-46
2022/06/18 01:29:53;;;;;;;;;;;21.80;48.90;;;;;;5162233;27;19961;-46
2022/06/18 01:32:19;;;;;;;;;;;20.70;49.90;;;;;;5167979;27;19971;-45
2022/06/18 01:34:45;;;;;;;;;;;20.00;50.40;;;;;;5162060;27;20362;-49
2022/06/18 01:37:10;;;;;;;;;;;19.90;50.00;;;;;;5167338;27;19938;-46
2022/06/18 01:39:37;;;;;;;;;;;19.90;51.00;;;;;;5159779;27;19929;-46
2022/06/18 01:42:08;;;;;;;;;;;20.80;51.40;;;;;;5140745;27;19927;-46
2022/06/18 01:44:33;;;;;;;;;;;21.80;49.10;;;;;;5170266;27;19970;-45
2022/06/18 01:47:02;;;;;;;;;;;20.80;49.80;;;;;;5165892;27;19927;-47
2022/06/18 01:49:30;;;;;;;;;;;20.20;50.30;;;;;;5146573;27;20182;-45
2022/06/18 01:51:56;;;;;;;;;;;19.90;50.10;;;;;;5171262;27;19923;-46
2022/06/18 01:54:24;;;;;;;;;;;20.10;51.60;;;;;;5165758;27;19926;-47
2022/06/18 01:56:52;;;;;;;;;;;21.10;50.70;;;;;;5147578;27;19945;-53
2022/06/18 01:59:20;;;;;;;;;;;21.80;48.60;;;;;;5169462;27;19922;-46
2022/06/18 02:01:45;;;;;;;;;;;20.60;50.00;;;;;;5146003;27;20014;-45
2022/06/18 02:04:11;;;;;;;;;;;20.20;50.00;;;;;;5152041;27;19923;-46
2022/06/18 02:06:37;;;;;;;;;;;20.00;49.40;;;;;;5146798;27;20316;-44
2022/06/18 02:09:04;;;;;;;;;;;19.60;50.00;;;;;;5165423;27;19926;-47
2022/06/18 02:11:30;;;;;;;;;;;20.50;51.50;;;;;;5152085;27;19932;-50
2022/06/18 02:14:01;;;;;;;;;;;21.40;50.20;;;;;;5165377;27;19923;-45
2022/06/18 02:16:27;;;;;;;;;;;21.50;49.20;;;;;;5144706;27;20094;-46
2022/06/18 02:18:53;;;;;;;;;;;20.50;50.10;;;;;;5151244;27;20026;-47
2022/06/18 02:21:22;;;;;;;;;;;20.00;50.30;;;;;;5164913;27;20539;-46
2022/06/18 02:23:52;;;;;;;;;;;20.00;49.70;;;;;;5151040;27;19927;-54
2022/06/18 02:26:18;;;;;;;;;;;20.10;52.10;;;;;;5131735;27;19945;-46
2022/06/18 02:28:44;;;;;;;;;;;21.20;50.90;;;;;;5165203;27;20010;-48
2022/06/18 02:31:14;;;;;;;;;;;21.90;49.10;;;;;;5150154;27;19958;-47
2022/06/18 02:33:47;;;;;;;;;;;20.80;50.20;;;;;;5163489;27;20021;-45
2022/06/18 02:36:16;;;;;;;;;;;20.10;50.50;;;;;;5163050;27;20025;-47
2022/06/18 02:38:42;;;;;;;;;;;20.00;49.90;;;;;;5169580;27;20597;-48
2022/06/18 02:41:09;;;;;;;;;;;20.60;52.30;;;;;;5164484;27;19930;-50
2022/06/18 02:43:34;;;;;;;;;;;21.60;50.00;;;;;;5164695;27;20405;-46
2022/06/18 02:46:01;;;;;;;;;;;21.10;49.90;;;;;;5170237;27;19926;-48
2022/06/18 02:48:28;;;;;;;;;;;20.30;50.70;;;;;;5164603;27;19986;-46
2022/06/18 02:50:54;;;;;;;;;;;19.90;50.20;;;;;;5169599;27;20021;-51
2022/06/18 02:53:19;;;;;;;;;;;19.70;50.10;;;;;;5162971;27;19984;-46
2022/06/18 02:55:46;;;;;;;;;;;20.30;52.50;;;;;;5163727;27;19923;-48
2022/06/18 02:58:12;;;;;;;;;;;21.30;51.00;;;;;;5169685;27;20017;-47
2022/06/18 03:00:38;;;;;;;;;;;21.70;49.30;;;;;;5164381;27;19923;-44
2022/06/18 03:03:06;;;;;;;;;;;20.60;50.20;;;;;;5145824;27;20765;-45
2022/06/18 03:05:32;;;;;;;;;;;20.10;50.40;;;;;;5169911;27;20308;-45
2022/06/18 03:07:58;;;;;;;;;;;19.80;50.20;;;;;;5145537;27;20016;-44
2022/06/18 03:13:08;;;;;;;;;;;21.20;51.30;;;;;;5168356;27;20305;-46
2022/06/18 03:15:34;;;;;;;;;;;21.50;49.50;;;;;;5144009;27;20446;-46
2022/06/18 03:18:00;;;;;;;;;;;20.30;50.80;;;;;;5168737;27;19930;-57
2022/06/18 03:20:28;;;;;;;;;;;19.90;50.60;;;;;;5146389;27;19922;-45
2022/06/18 03:22:54;;;;;;;;;;;20.00;50.40;;;;;;5145158;27;19923;-45
2022/06/18 03:25:20;;;;;;;;;;;20.80;52.20;;;;;;5169188;27;19934;-44
2022/06/18 03:27:45;;;;;;;;;;;21.70;50.00;;;;;;5163662;27;20430;-46
2022/06/18 03:30:12;;;;;;;;;;;21.00;50.10;;;;;;5161607;27;19954;-46
2022/06/18 03:32:38;;;;;;;;;;;20.20;51.10;;;;;;5168613;27;19930;-49
2022/06/18 03:35:03;;;;;;;;;;;19.80;50.50;;;;;;5163750;27;20386;-47
2022/06/18 03:37:29;;;;;;;;;;;19.90;52.10;;;;;;5165255;27;19923;-56
2022/06/18 03:39:55;;;;;;;;;;;21.00;51.80;;;;;;5168130;27;19923;-45
2022/06/18 03:42:21;;;;;;;;;;;21.80;49.70;;;;;;5163703;27;19927;-48
2022/06/18 03:44:47;;;;;;;;;;;20.80;50.70;;;;;;5168798;27;20398;-46
2022/06/18 03:47:13;;;;;;;;;;;20.10;51.00;;;;;;5162108;27;19930;-49
2022/06/18 03:49:39;;;;;;;;;;;19.80;50.60;;;;;;5161906;27;19930;-48
2022/06/18 03:52:05;;;;;;;;;;;19.80;51.80;;;;;;5168194;27;19927;-46
2022/06/18 03:54:31;;;;;;;;;;;20.90;52.10;;;;;;5163111;27;20427;-45
2022/06/18 03:56:56;;;;;;;;;;;21.80;50.00;;;;;;5163119;27;19923;-47
2022/06/18 03:59:22;;;;;;;;;;;20.80;50.80;;;;;;5168842;27;19930;-45
2022/06/18 04:01:48;;;;;;;;;;;20.20;50.80;;;;;;5163316;27;20381;-47
2022/06/18 04:04:14;;;;;;;;;;;19.80;50.40;;;;;;5168653;27;19926;-47
2022/06/18 04:06:40;;;;;;;;;;;19.70;50.10;;;;;;5160667;27;19971;-47
2022/06/18 04:09:05;;;;;;;;;;;20.40;52.40;;;;;;5162260;27;19923;-46
2022/06/18 04:11:31;;;;;;;;;;;21.30;51.40;;;;;;5168233;27;19979;-49
2022/06/18 04:13:57;;;;;;;;;;;21.50;50.20;;;;;;5162822;27;19934;-45
2022/06/18 04:16:23;;;;;;;;;;;20.30;51.40;;;;;;5162832;27;20580;-47
2022/06/18 04:18:49;;;;;;;;;;;20.00;51.00;;;;;;5168691;27;20013;-47
2022/06/18 04:21:15;;;;;;;;;;;19.80;50.40;;;;;;5162714;27;19929;-45
2022/06/18 04:23:41;;;;;;;;;;;20.50;53.00;;;;;;5167288;27;19923;-50
2022/06/18 04:26:07;;;;;;;;;;;21.40;51.40;;;;;;5160928;27;20029;-46
2022/06/18 04:28:33;;;;;;;;;;;21.20;50.50;;;;;;5143872;27;19960;-46
2022/06/18 04:30:59;;;;;;;;;;;20.40;51.00;;;;;;5168030;27;19966;-46
2022/06/18 04:33:24;;;;;;;;;;;20.10;50.50;;;;;;5162828;27;20436;-45
2022/06/18 04:35:54;;;;;;;;;;;19.80;50.30;;;;;;5163080;27;20181;-44
2022/06/18 04:38:20;;;;;;;;;;;20.10;52.50;;;;;;5168437;27;20263;-48
2022/06/18 04:40:46;;;;;;;;;;;21.10;52.20;;;;;;5162895;27;19974;-45
2022/06/18 04:43:12;;;;;;;;;;;21.80;50.10;;;;;;5164629;27;20374;-55
2022/06/18 04:45:37;;;;;;;;;;;20.80;50.90;;;;;;5163866;27;19923;-44
2022/06/18 04:48:03;;;;;;;;;;;20.10;51.30;;;;;;5162146;27;19941;-46
2022/06/18 04:50:30;;;;;;;;;;;19.90;50.80;;;;;;5167954;27;20338;-47
2022/06/18 04:52:56;;;;;;;;;;;19.80;51.80;;;;;;5143970;27;19927;-47
2022/06/18 04:55:22;;;;;;;;;;;20.80;52.90;;;;;;5162921;27;19929;-44
2022/06/18 04:57:47;;;;;;;;;;;21.70;51.20;;;;;;5167833;27;19923;-46
2022/06/18 05:00:14;;;;;;;;;;;21.10;50.80;;;;;;5161791;27;20002;-48
2022/06/18 05:02:39;;;;;;;;;;;20.50;50.80;;;;;;5161538;27;19945;-54
2022/06/18 05:05:07;;;;;;;;;;;20.00;51.00;;;;;;5166548;27;19934;-47
2022/06/18 05:07:33;;;;;;;;;;;19.80;50.50;;;;;;5162294;27;19970;-45
2022/06/18 05:09:59;;;;;;;;;;;20.50;53.30;;;;;;5167815;27;19927;-45
2022/06/18 05:12:24;;;;;;;;;;;21.30;52.00;;;;;;5162461;27;19923;-45
2022/06/18 05:14:51;;;;;;;;;;;21.60;50.50;;;;;;5162453;27;19982;-44
2022/06/18 05:17:21;;;;;;;;;;;20.60;51.30;;;;;;5167711;27;19940;-45
2022/06/18 05:19:47;;;;;;;;;;;20.20;50.90;;;;;;5164283;27;19926;-49
2022/06/18 05:22:12;;;;;;;;;;;20.00;50.60;;;;;;5165275;27;19933;-48
2022/06/18 05:24:38;;;;;;;;;;;19.70;50.40;;;;;;5171299;27;19923;-44
2022/06/18 05:27:04;;;;;;;;;;;20.50;53.00;;;;;;5166067;27;19930;-45
2022/06/18 05:29:30;;;;;;;;;;;21.40;52.00;;;;;;5171528;27;19934;-45
2022/06/18 05:31:56;;;;;;;;;;;21.50;50.80;;;;;;5166311;27;20332;-45
2022/06/18 05:34:21;;;;;;;;;;;20.40;51.80;;;;;;5166299;27;19923;-44
2022/06/18 05:36:47;;;;;;;;;;;20.10;50.90;;;;;;5171472;27;20048;-51
2022/06/18 05:39:14;;;;;;;;;;;19.90;50.90;;;;;;5145102;27;19948;-45
2022/06/18 05:41:39;;;;;;;;;;;20.10;53.10;;;;;;5165477;27;19941;-46
2022/06/18 05:44:05;;;;;;;;;;;21.00;53.20;;;;;;5171210;27;19923;-45
2022/06/18 05:46:31;;;;;;;;;;;21.90;50.80;;;;;;5165841;27;19948;-45
2022/06/18 05:48:57;;;;;;;;;;;20.80;51.30;;;;;;5170837;27;19948;-50
2022/06/18 05:51:23;;;;;;;;;;;20.20;51.40;;;;;;5166580;27;20341;-45
2022/06/18 05:53:49;;;;;;;;;;;20.10;50.90;;;;;;5165553;27;19923;-44
2022/06/18 05:56:15;;;;;;;;;;;19.90;50.60;;;;;;5169493;27;19982;-51
2022/06/18 05:58:41;;;;;;;;;;;20.60;53.70;;;;;;5164437;27;19926;-46
2022/06/18 06:01:07;;;;;;;;;;;21.50;52.10;;;;;;5165153;27;19922;-46
2022/06/18 06:03:32;;;;;;;;;;;21.70;50.50;;;;;;5170774;27;19980;-46
2022/06/18 06:05:59;;;;;;;;;;;20.60;51.70;;;;;;5165520;27;19981;-45
2022/06/18 06:08:25;;;;;;;;;;;20.30;51.10;;;;;;5167759;27;19994;-54
2022/06/18 06:13:35;;;;;;;;;;;20.10;52.50;;;;;;5164869;27;19929;-50
2022/06/18 06:16:01;;;;;;;;;;;21.10;53.10;;;;;;5168891;27;19935;-47
2022/06/18 06:18:27;;;;;;;;;;;21.80;51.00;;;;;;5164745;27;19922;-46
2022/06/18 06:20:53;;;;;;;;;;;20.90;51.40;;;;;;5165098;27;19927;-46
2022/06/18 06:23:19;;;;;;;;;;;20.30;51.40;;;;;;5152120;27;20026;-46
2022/06/18 06:25:45;;;;;;;;;;;20.20;50.60;;;;;;5165118;27;20319;-45
2022/06/18 06:28:15;;;;;;;;;;;20.00;50.40;;;;;;5165101;27;19928;-45
2022/06/18 06:30:40;;;;;;;;;;;20.50;53.50;;;;;;5151162;27;19922;-44
2022/06/18 06:33:06;;;;;;;;;;;21.40;52.70;;;;;;5163553;27;19934;-46
2022/06/18 06:35:33;;;;;;;;;;;21.60;51.30;;;;;;5165377;27;20032;-54
2022/06/18 06:37:59;;;;;;;;;;;20.80;51.70;;;;;;5169037;27;19927;-45
2022/06/18 06:40:25;;;;;;;;;;;20.20;51.60;;;;;;5146030;27;19976;-44
2022/06/18 06:42:51;;;;;;;;;;;20.10;50.90;;;;;;5170231;27;19985;-44
2022/06/18 06:45:21;;;;;;;;;;;20.10;50.30;;;;;;5164883;27;20412;-46
2022/06/18 06:47:47;;;;;;;;;;;20.30;53.50;;;;;;5164622;27;19929;-45
2022/06/18 06:50:13;;;;;;;;;;;21.30;53.10;;;;;;5169786;27;19973;-48
2022/06/18 06:52:39;;;;;;;;;;;21.80;51.60;;;;;;5162444;27;19974;-46
2022/06/18 06:58:09;;;;;;;;;;;20.30;51.90;;;;;;5169861;27;19933;-45
2022/06/18 07:00:37;;;;;;;;;;;20.10;51.20;;;;;;5144411;27;19935;-51
2022/06/18 07:03:03;;;;;;;;;;;20.00;51.00;;;;;;5164676;27;20186;-46
2022/06/18 07:05:28;;;;;;;;;;;20.30;53.80;;;;;;5169847;27;20432;-48
2022/06/18 07:07:54;;;;;;;;;;;21.20;54.20;;;;;;5164225;27;19979;-46
2022/06/18 07:10:20;;;;;;;;;;;21.80;52.00;;;;;;5146365;27;19927;-53
2022/06/18 07:12:46;;;;;;;;;;;20.80;52.60;;;;;;5166220;27;20358;-49
2022/06/18 07:15:11;;;;;;;;;;;20.50;52.10;;;;;;5144404;27;20017;-46
2022/06/18 07:17:37;;;;;;;;;;;20.30;51.60;;;;;;5169509;27;19951;-43
2022/06/18 07:20:03;;;;;;;;;;;20.30;50.90;;;;;;5164109;27;20384;-46
2022/06/18 07:22:31;;;;;;;;;;;19.90;50.90;;;;;;5164143;27;19931;-45
2022/06/18 07:24:57;;;;;;;;;;;20.70;54.30;;;;;;5169268;27;20374;-44
2022/06/18 07:27:23;;;;;;;;;;;21.60;53.90;;;;;;5142693;27;19923;-49
2022/06/18 07:29:48;;;;;;;;;;;21.50;52.70;;;;;;5162055;27;19987;-50
2022/06/18 07:32:15;;;;;;;;;;;20.80;52.80;;;;;;5168684;27;19987;-46
2022/06/18 07:34:40;;;;;;;;;;;20.30;52.30;;;;;;5163690;27;19923;-46
2022/06/18 07:37:06;;;;;;;;;;;20.20;51.70;;;;;;5169458;27;19923;-47
2022/06/18 07:39:32;;;;;;;;;;;20.10;51.00;;;;;;5163660;27;20439;-46
2022/06/18 07:41:58;;;;;;;;;;;20.30;54.10;;;;;;5162792;27;19923;-47
2022/06/18 07:44:24;;;;;;;;;;;21.20;55.00;;;;;;5150388;27;19927;-46
2022/06/18 07:46:51;;;;;;;;;;;21.90;53.20;;;;;;5161669;27;20017;-46
2022/06/18 07:49:17;;;;;;;;;;;21.10;52.90;;;;;;5162315;27;19922;-47
2022/06/18 07:51:43;;;;;;;;;;;20.60;52.50;;;;;;5168380;27;19923;-46
2022/06/18 07:54:09;;;;;;;;;;;20.20;52.20;;;;;;5163356;27;19927;-47
2022/06/18 07:56:35;;;;;;;;;;;20.30;51.30;;;;;;5149938;27;19933;-45
2022/06/18 07:59:01;;;;;;;;;;;20.00;51.30;;;;;;5163513;27;19974;-50
2022/06/18 08:01:27;;;;;;;;;;;20.50;54.40;;;;;;5163344;27;19923;-46
2022/06/18 08:03:53;;;;;;;;;;;21.30;54.80;;;;;;5168148;27;20080;-48
2022/06/18 08:06:18;;;;;;;;;;;21.80;53.60;;;;;;5161315;27;19927;-46
2022/06/18 08:08:44;;;;;;;;;;;20.80;53.40;;;;;;5162347;27;20164;-45
2022/06/18 08:11:11;;;;;;;;;;;20.60;52.50;;;;;;5168248;27;19969;-46
2022/06/18 08:13:37;;;;;;;;;;;20.20;52.30;;;;;;5163082;27;19934;-46
2022/06/18 08:16:03;;;;;;;;;;;20.20;51.60;;;;;;5168475;27;20366;-52
2022/06/18 08:18:28;;;;;;;;;;;20.20;52.20;;;;;;5164179;27;20017;-46
2022/06/18 08:20:54;;;;;;;;;;;20.80;55.60;;;;;;5163147;27;20377;-45
2022/06/18 08:23:20;;;;;;;;;;;21.70;54.60;;;;;;5148049;27;20286;-44
2022/06/18 08:25:46;;;;;;;;;;;21.40;53.40;;;;;;5161445;27;19923;-46
2022/06/18 08:28:11;;;;;;;;;;;20.80;52.90;;;;;;5162314;27;20183;-47
2022/06/18 08:30:41;;;;;;;;;;;20.30;52.90;;;;;;5167428;27;21143;-45
2022/06/18 08:33:07;;;;;;;;;;;20.30;52.10;;;;;;5162693;27;19927;-46
2022/06/18 08:35:36;;;;;;;;;;;20.30;51.40;;;;;;5164215;27;20386;-55
2022/06/18 08:38:05;;;;;;;;;;;20.20;53.40;;;;;;5168125;27;20421;-45
2022/06/18 08:40:45;;;;;;;;;;;21.10;55.50;;;;;;5162597;27;19927;-50
2022/06/18 08:43:29;;;;;;;;;;;21.80;54.50;;;;;;5165124;27;19923;-55
2022/06/18 08:45:58;;;;;;;;;;;21.10;53.50;;;;;;5167571;27;20009;-45
2022/06/18 08:48:43;;;;;;;;;;;20.50;52.90;;;;;;5162422;27;19923;-47
2022/06/18 08:51:12;;;;;;;;;;;20.30;52.10;;;;;;5162586;27;19923;-46
2022/06/18 08:53:48;;;;;;;;;;;19.90;52.20;;;;;;5171887;27;20021;-47
2022/06/18 08:56:14;;;;;;;;;;;20.10;51.30;;;;;;5167104;27;19978;-46
2022/06/18 08:58:59;;;;;;;;;;;19.80;51.20;;;;;;5152060;27;19929;-56
2022/06/18 09:01:27;;;;;;;;;;;20.70;54.90;;;;;;5170360;27;19986;-46
2022/06/18 09:04:07;;;;;;;;;;;21.60;54.70;;;;;;5166031;27;19933;-46
2022/06/18 09:06:42;;;;;;;;;;;21.40;53.60;;;;;;5167148;27;20013;-52
2022/06/18 09:09:22;;;;;;;;;;;20.80;53.10;;;;;;5172044;27;20009;-44
2022/06/18 09:11:54;;;;;;;;;;;20.40;52.40;;;;;;5146525;27;19929;-44
2022/06/18 09:14:22;;;;;;;;;;;20.30;51.50;;;;;;5147821;27;19935;-49
2022/06/18 09:16:54;;;;;;;;;;;20.20;51.30;;;;;;5151931;27;19924;-46
2022/06/18 09:19:20;;;;;;;;;;;20.00;52.40;;;;;;5145531;27;20479;-48
2022/06/18 09:21:53;;;;;;;;;;;20.90;55.30;;;;;;5152390;27;19923;-45
2022/06/18 09:24:20;;;;;;;;;;;21.80;54.30;;;;;;5167437;27;19927;-45
2022/06/18 09:26:47;;;;;;;;;;;21.50;52.90;;;;;;5147679;27;19927;-44
2022/06/18 09:29:15;;;;;;;;;;;20.80;52.80;;;;;;5152943;27;20010;-44
2022/06/18 09:31:46;;;;;;;;;;;20.50;52.30;;;;;;5166440;27;20294;-51
2022/06/18 09:34:22;;;;;;;;;;;20.30;51.90;;;;;;5146955;27;20017;-45
2022/06/18 09:36:49;;;;;;;;;;;20.20;51.70;;;;;;5170030;27;19923;-45
2022/06/18 09:39:16;;;;;;;;;;;20.20;51.10;;;;;;5146035;27;20409;-47
2022/06/18 09:41:44;;;;;;;;;;;20.20;50.90;;;;;;5165585;27;20568;-47
2022/06/18 09:44:30;;;;;;;;;;;19.80;51.20;;;;;;5152703;27;19926;-46
2022/06/18 09:47:00;;;;;;;;;;;19.90;52.10;;;;;;5165050;27;20017;-46
2022/06/18 09:49:26;;;;;;;;;;;20.80;55.00;;;;;;5166050;27;20025;-47
2022/06/18 09:52:06;;;;;;;;;;;21.60;54.90;;;;;;5171372;27;20031;-43
2022/06/18 09:54:52;;;;;;;;;;;21.80;53.30;;;;;;5164638;27;20353;-47
2022/06/18 09:57:18;;;;;;;;;;;20.90;53.20;;;;;;5164249;27;19922;-47
2022/06/18 09:59:45;;;;;;;;;;;20.60;52.50;;;;;;5151944;27;19930;-46
2022/06/18 10:02:16;;;;;;;;;;;20.40;51.90;;;;;;5165498;27;20389;-44
2022/06/18 10:07:26;;;;;;;;;;;20.30;50.90;;;;;;5153730;27;19931;-46
2022/06/18 10:09:57;;;;;;;;;;;20.60;54.20;;;;;;5165228;27;19927;-44
2022/06/18 10:12:36;;;;;;;;;;;21.40;54.70;;;;;;5165288;27;19927;-48
2022/06/18 10:15:03;;;;;;;;;;;21.60;53.20;;;;;;5168841;27;19927;-46
2022/06/18 10:17:47;;;;;;;;;;;20.80;52.90;;;;;;5164791;27;20180;-46
2022/06/18 10:20:19;;;;;;;;;;;20.60;51.60;;;;;;5165214;27;20674;-46
2022/06/18 10:23:03;;;;;;;;;;;20.40;51.00;;;;;;5151951;27;19923;-46
2022/06/18 10:25:36;;;;;;;;;;;20.40;50.30;;;;;;5165120;27;20017;-45
2022/06/18 10:28:28;;;;;;;;;;;20.10;50.50;;;;;;5146949;27;20037;-47
2022/06/18 10:30:54;;;;;;;;;;;20.60;53.40;;;;;;5129480;27;19922;-46
2022/06/18 10:33:33;;;;;;;;;;;21.60;52.90;;;;;;5163155;27;20012;-50
2022/06/18 10:36:15;;;;;;;;;;;21.50;51.80;;;;;;5164380;27;19964;-47
2022/06/18 10:39:00;;;;;;;;;;;20.80;51.70;;;;;;5170284;27;20354;-50
2022/06/18 10:41:26;;;;;;;;;;;20.30;51.40;;;;;;5165024;27;19927;-46
2022/06/18 10:44:01;;;;;;;;;;;20.20;50.90;;;;;;5164835;27;19926;-49
2022/06/18 10:46:27;;;;;;;;;;;20.30;50.00;;;;;;5170294;27;19929;-45
2022/06/18 10:48:53;;;;;;;;;;;20.30;51.40;;;;;;5164487;27;20365;-47
2022/06/18 10:51:20;;;;;;;;;;;21.10;52.90;;;;;;5143455;27;19923;-46
2022/06/18 10:53:50;;;;;;;;;;;21.90;51.20;;;;;;5149722;27;19937;-46
2022/06/18 10:56:17;;;;;;;;;;;21.30;51.20;;;;;;5164080;27;19929;-46
2022/06/18 10:59:09;;;;;;;;;;;20.80;51.10;;;;;;5167471;27;19980;-56
2022/06/18 11:01:38;;;;;;;;;;;20.50;50.40;;;;;;5164756;27;19931;-45
2022/06/18 11:04:05;;;;;;;;;;;20.30;50.60;;;;;;5164436;27;19929;-46
2022/06/18 11:06:30;;;;;;;;;;;20.30;49.90;;;;;;5165708;27;19922;-52
2022/06/18 11:08:58;;;;;;;;;;;20.20;49.70;;;;;;5166709;27;20275;-45
2022/06/18 11:11:25;;;;;;;;;;;20.10;49.40;;;;;;5144504;27;19922;-46
2022/06/18 11:13:51;;;;;;;;;;;20.10;49.10;;;;;;5169219;27;20372;-45
2022/06/18 11:16:21;;;;;;;;;;;20.00;51.30;;;;;;5144219;27;19923;-46
2022/06/18 11:18:54;;;;;;;;;;;21.10;51.80;;;;;;5163895;27;20433;-46
2022/06/18 11:21:19;;;;;;;;;;;21.90;50.30;;;;;;5169629;27;20005;-45
2022/06/18 11:23:47;;;;;;;;;;;21.40;50.10;;;;;;5163783;27;19923;-45
2022/06/18 11:26:16;;;;;;;;;;;20.80;50.50;;;;;;5162929;27;20279;-45
2022/06/18 11:28:43;;;;;;;;;;;20.50;50.60;;;;;;5167410;27;20021;-45
2022/06/18 11:31:13;;;;;;;;;;;20.30;50.20;;;;;;5163079;27;19923;-45
2022/06/18 11:33:40;;;;;;;;;;;20.30;49.80;;;;;;5163891;27;19926;-53
2022/06/18 11:36:09;;;;;;;;;;;20.30;49.30;;;;;;5169371;27;20409;-45
2022/06/18 11:38:34;;;;;;;;;;;20.20;49.50;;;;;;5164018;27;20389;-44
2022/06/18 11:41:06;;;;;;;;;;;20.00;49.50;;;;;;5169275;27;20018;-45
2022/06/18 11:43:35;;;;;;;;;;;20.00;50.30;;;;;;5163534;27;20402;-48
2022/06/18 11:46:01;;;;;;;;;;;20.90;52.00;;;;;;5161178;27;19948;-51
2022/06/18 11:48:30;;;;;;;;;;;21.80;51.20;;;;;;5132006;27;19974;-45
2022/06/18 11:51:00;;;;;;;;;;;21.70;50.30;;;;;;5163112;27;19923;-45
2022/06/18 11:53:28;;;;;;;;;;;20.90;50.90;;;;;;5144325;27;20419;-45
2022/06/18 11:55:57;;;;;;;;;;;20.80;50.50;;;;;;5150242;27;20325;-45
2022/06/18 11:58:24;;;;;;;;;;;20.30;50.70;;;;;;5163346;27;19929;-47
2022/06/18 12:01:13;;;;;;;;;;;20.30;50.00;;;;;;5144561;27;19927;-47
2022/06/18 12:03:42;;;;;;;;;;;20.30;49.90;;;;;;5148630;27;20383;-46
2022/06/18 12:06:12;;;;;;;;;;;20.10;49.90;;;;;;5162012;27;20293;-45
2022/06/18 12:08:38;;;;;;;;;;;20.20;49.50;;;;;;5162658;27;19926;-44
2022/06/18 12:11:06;;;;;;;;;;;20.00;49.70;;;;;;5168197;27;19923;-45
2022/06/18 12:13:38;;;;;;;;;;;20.50;52.10;;;;;;5162915;27;19922;-45
2022/06/18 12:16:13;;;;;;;;;;;21.40;51.70;;;;;;5130360;27;20457;-54
2022/06/18 12:18:42;;;;;;;;;;;22.00;50.20;;;;;;5168238;27;19923;-45
2022/06/18 12:21:11;;;;;;;;;;;21.00;51.20;;;;;;5162176;27;20309;-49
2022/06/18 12:23:36;;;;;;;;;;;20.70;50.80;;;;;;5166220;27;20025;-44
2022/06/18 12:26:12;;;;;;;;;;;20.60;50.50;;;;;;5162177;27;19934;-44
2022/06/18 12:28:50;;;;;;;;;;;20.30;50.30;;;;;;5162419;27;20016;-45
2022/06/18 12:31:20;;;;;;;;;;;20.40;49.60;;;;;;5168456;27;19929;-44
2022/06/18 12:34:00;;;;;;;;;;;20.30;49.60;;;;;;5162875;27;19983;-44
2022/06/18 12:36:26;;;;;;;;;;;20.10;49.60;;;;;;5144046;27;20017;-48
2022/06/18 12:39:05;;;;;;;;;;;20.10;49.40;;;;;;5168252;27;19966;-45
2022/06/18 12:41:50;;;;;;;;;;;20.40;51.20;;;;;;5160162;27;20256;-47
2022/06/18 12:44:22;;;;;;;;;;;21.30;51.60;;;;;;5161249;27;19937;-46
2022/06/18 12:46:49;;;;;;;;;;;22.10;50.00;;;;;;5149079;27;19978;-44
2022/06/18 12:49:17;;;;;;;;;;;21.00;51.00;;;;;;5162392;27;19931;-46
2022/06/18 12:51:49;;;;;;;;;;;20.80;50.60;;;;;;5143888;27;19931;-46
2022/06/18 12:54:47;;;;;;;;;;;20.60;50.30;;;;;;5148616;27;19930;-45
2022/06/18 12:57:17;;;;;;;;;;;20.30;50.10;;;;;;5106560;27;19926;-46
2022/06/18 12:59:56;;;;;;;;;;;20.20;49.90;;;;;;5160380;27;20075;-46
2022/06/18 13:02:29;;;;;;;;;;;20.30;49.70;;;;;;5148796;27;19927;-45
2022/06/18 13:05:09;;;;;;;;;;;20.10;49.80;;;;;;5144075;27;19923;-48
2022/06/18 13:07:47;;;;;;;;;;;20.30;49.00;;;;;;5162332;27;19923;-46
2022/06/18 13:10:16;;;;;;;;;;;20.80;52.10;;;;;;5167748;27;20013;-52
2022/06/18 13:12:57;;;;;;;;;;;21.80;51.30;;;;;;5144186;27;19950;-50
2022/06/18 13:15:31;;;;;;;;;;;21.80;50.50;;;;;;5162496;27;19927;-48
2022/06/18 13:18:06;;;;;;;;;;;20.90;51.30;;;;;;5165568;27;19923;-48
2022/06/18 13:20:37;;;;;;;;;;;20.80;50.80;;;;;;5165392;27;19926;-46
2022/06/18 13:28:10;;;;;;;;;;;20.50;50.70;;;;;;5142704;27;19930;-47
2022/06/18 13:28:33;;;;;;;;;;;20.40;50.00;;;;;;5168006;27;20053;-48
2022/06/18 13:31:00;;;;;;;;;;;20.40;50.00;;;;;;5162553;27;20342;-46
2022/06/18 13:33:26;;;;;;;;;;;20.40;49.90;;;;;;5167886;27;19922;-49
2022/06/18 13:36:00;;;;;;;;;;;20.20;50.00;;;;;;5160362;27;20338;-47
2022/06/18 13:38:46;;;;;;;;;;;20.60;51.60;;;;;;5161016;27;20441;-47
2022/06/18 13:41:33;;;;;;;;;;;21.60;52.10;;;;;;5171049;27;20025;-50
2022/06/18 13:44:02;;;;;;;;;;;21.80;51.30;;;;;;5171553;27;20412;-45
2022/06/18 13:46:32;;;;;;;;;;;21.00;51.70;;;;;;5166022;27;19938;-44
2022/06/18 13:49:28;;;;;;;;;;;20.80;51.20;;;;;;5170523;27;20358;-54
2022/06/18 13:51:57;;;;;;;;;;;20.60;51.10;;;;;;5078545;27;19962;-47
2022/06/18 13:54:23;;;;;;;;;;;20.50;50.50;;;;;;5163854;27;20286;-46
2022/06/18 13:57:03;;;;;;;;;;;20.40;50.40;;;;;;5166574;27;19923;-54
2022/06/18 13:59:29;;;;;;;;;;;20.40;50.10;;;;;;5170612;27;20001;-46
2022/06/18 14:01:58;;;;;;;;;;;20.30;50.00;;;;;;5165401;27;19927;-46
2022/06/18 14:04:26;;;;;;;;;;;20.30;50.10;;;;;;5170953;27;19927;-49
2022/06/18 14:06:52;;;;;;;;;;;20.30;49.90;;;;;;5166429;27;20454;-46
2022/06/18 14:09:19;;;;;;;;;;;20.20;49.80;;;;;;5129374;27;20025;-46
2022/06/18 14:11:48;;;;;;;;;;;20.10;51.80;;;;;;5151063;27;20308;-49
2022/06/18 14:14:25;;;;;;;;;;;21.20;53.00;;;;;;5143401;27;19923;-45
2022/06/18 14:17:17;;;;;;;;;;;21.90;52.40;;;;;;5164798;27;19922;-46
2022/06/18 14:19:43;;;;;;;;;;;21.40;52.20;;;;;;5165688;27;20366;-47
2022/06/18 14:22:15;;;;;;;;;;;20.90;51.90;;;;;;5146352;27;20034;-44
2022/06/18 14:24:48;;;;;;;;;;;20.70;51.60;;;;;;5165268;27;20461;-46
2022/06/18 14:27:20;;;;;;;;;;;20.50;51.30;;;;;;5170594;27;19922;-43
2022/06/18 14:29:46;;;;;;;;;;;20.40;50.90;;;;;;5164279;27;19931;-45
2022/06/18 14:32:30;;;;;;;;;;;20.40;50.70;;;;;;5163284;27;19955;-48
2022/06/18 14:35:15;;;;;;;;;;;20.50;50.50;;;;;;5169861;27;19926;-44
2022/06/18 14:37:42;;;;;;;;;;;20.30;50.70;;;;;;5164790;27;20373;-44
2022/06/18 14:40:10;;;;;;;;;;;20.30;50.30;;;;;;5146373;27;19929;-46
2022/06/18 14:42:35;;;;;;;;;;;20.10;50.70;;;;;;5170523;27;20017;-45